sensor_id;sensor_type;location;lat;lon;timestamp;temperature;humidity
65396;HTU21D;52004;45.136;39.010;2022-09-03T00:00:16;23.16;50.75
65396;HTU21D;52004;45.136;39.010;2022-09-03T00:05:25;23.10;50.75
65396;HTU21D;52004;45.136;39.010;2022-09-03T00:10:58;23.05;50.74
65396;HTU21D;52004;45.136;39.010;2022-09-03T00:16:04;22.98;50.74
65396;HTU21D;52004;45.136;39.010;2022-09-03T00:18:34;22.97;50.74
65396;HTU21D;52004;45.136;39.010;2022-09-03T00:21:29;22.93;50.74
65396;HTU21D;52004;45.136;39.010;2022-09-03T00:23:56;22.90;50.72
65396;HTU21D;52004;45.136;39.010;2022-09-03T00:26:25;22.87;50.72
65396;HTU21D;52004;45.136;39.010;2022-09-03T00:28:57;22.84;50.75
65396;HTU21D;52004;45.136;39.010;2022-09-03T00:31:29;22.80;50.76
65396;HTU21D;52004;45.136;39.010;2022-09-03T00:33:59;22.77;50.78
65396;HTU21D;52004;45.136;39.010;2022-09-03T00:36:39;22.72;50.81
65396;HTU21D;52004;45.136;39.010;2022-09-03T00:39:16;22.68;50.82
65396;HTU21D;52004;45.136;39.010;2022-09-03T00:44:14;22.63;50.83
65396;HTU21D;52004;45.136;39.010;2022-09-03T00:49:23;22.57;50.86
65396;HTU21D;52004;45.136;39.010;2022-09-03T01:07:13;22.29;51.01
65396;HTU21D;52004;45.136;39.010;2022-09-03T01:09:52;22.23;51.01
65396;HTU21D;52004;45.136;39.010;2022-09-03T01:12:36;22.20;51.06
65396;HTU21D;52004;45.136;39.010;2022-09-03T01:20:01;22.12;51.10
65396;HTU21D;52004;45.136;39.010;2022-09-03T01:27:40;22.02;51.17
65396;HTU21D;52004;45.136;39.010;2022-09-03T01:30:12;21.98;51.20
65396;HTU21D;52004;45.136;39.010;2022-09-03T01:32:48;21.95;51.22
65396;HTU21D;52004;45.136;39.010;2022-09-03T01:43:00;21.80;51.32
65396;HTU21D;52004;45.136;39.010;2022-09-03T01:45:30;21.78;51.33
65396;HTU21D;52004;45.136;39.010;2022-09-03T01:53:18;21.67;51.39
65396;HTU21D;52004;45.136;39.010;2022-09-03T01:58:36;21.60;51.46
65396;HTU21D;52004;45.136;39.010;2022-09-03T02:01:54;21.58;51.49
65396;HTU21D;52004;45.136;39.010;2022-09-03T02:03:53;21.54;51.49
65396;HTU21D;52004;45.136;39.010;2022-09-03T02:06:27;21.52;51.52
65396;HTU21D;52004;45.136;39.010;2022-09-03T02:08:56;21.49;51.52
65396;HTU21D;52004;45.136;39.010;2022-09-03T02:11:22;21.48;51.53
65396;HTU21D;52004;45.136;39.010;2022-09-03T02:13:49;21.46;51.55
65396;HTU21D;52004;45.136;39.010;2022-09-03T02:16:18;21.43;51.57
65396;HTU21D;52004;45.136;39.010;2022-09-03T02:18:45;21.42;51.59
65396;HTU21D;52004;45.136;39.010;2022-09-03T02:21:17;21.38;51.61
65396;HTU21D;52004;45.136;39.010;2022-09-03T02:23:44;21.36;51.62
65396;HTU21D;52004;45.136;39.010;2022-09-03T02:26:11;21.34;51.63
65396;HTU21D;52004;45.136;39.010;2022-09-03T02:28:38;21.31;51.66
65396;HTU21D;52004;45.136;39.010;2022-09-03T02:31:04;21.29;51.69
65396;HTU21D;52004;45.136;39.010;2022-09-03T02:33:31;21.28;51.67
65396;HTU21D;52004;45.136;39.010;2022-09-03T02:35:58;21.25;51.69
65396;HTU21D;52004;45.136;39.010;2022-09-03T02:38:24;21.21;51.73
65396;HTU21D;52004;45.136;39.010;2022-09-03T02:40:50;21.18;51.78
65396;HTU21D;52004;45.136;39.010;2022-09-03T02:44:04;21.16;51.80
65396;HTU21D;52004;45.136;39.010;2022-09-03T02:46:07;21.15;51.82
65396;HTU21D;52004;45.136;39.010;2022-09-03T02:48:33;21.11;51.82
65396;HTU21D;52004;45.136;39.010;2022-09-03T02:51:00;21.08;51.84
65396;HTU21D;52004;45.136;39.010;2022-09-03T02:53:26;21.06;51.88
65396;HTU21D;52004;45.136;39.010;2022-09-03T02:55:57;21.05;51.91
65396;HTU21D;52004;45.136;39.010;2022-09-03T02:58:24;21.03;51.91
65396;HTU21D;52004;45.136;39.010;2022-09-03T03:00:51;21.01;51.95
65396;HTU21D;52004;45.136;39.010;2022-09-03T03:03:17;21.00;51.98
65396;HTU21D;52004;45.136;39.010;2022-09-03T03:05:47;20.99;52.00
65396;HTU21D;52004;45.136;39.010;2022-09-03T03:08:14;20.98;52.02
65396;HTU21D;52004;45.136;39.010;2022-09-03T03:10:41;20.98;52.03
65396;HTU21D;52004;45.136;39.010;2022-09-03T03:13:11;20.95;52.06
65396;HTU21D;52004;45.136;39.010;2022-09-03T03:15:37;20.94;52.11
65396;HTU21D;52004;45.136;39.010;2022-09-03T03:18:03;20.95;52.11
65396;HTU21D;52004;45.136;39.010;2022-09-03T03:20:29;20.95;52.12
65396;HTU21D;52004;45.136;39.010;2022-09-03T03:22:55;20.98;52.13
65396;HTU21D;52004;45.136;39.010;2022-09-03T03:25:21;20.99;52.14
65396;HTU21D;52004;45.136;39.010;2022-09-03T03:27:47;21.00;52.14
65396;HTU21D;52004;45.136;39.010;2022-09-03T03:30:13;21.03;52.17
65396;HTU21D;52004;45.136;39.010;2022-09-03T03:32:39;21.05;52.18
65396;HTU21D;52004;45.136;39.010;2022-09-03T03:35:05;21.07;52.17
65396;HTU21D;52004;45.136;39.010;2022-09-03T03:37:31;21.13;52.17
65396;HTU21D;52004;45.136;39.010;2022-09-03T03:39:58;21.16;52.16
65396;HTU21D;52004;45.136;39.010;2022-09-03T03:42:25;21.19;52.15
65396;HTU21D;52004;45.136;39.010;2022-09-03T03:44:51;21.23;52.16
65396;HTU21D;52004;45.136;39.010;2022-09-03T03:47:17;21.27;52.17
65396;HTU21D;52004;45.136;39.010;2022-09-03T03:49:43;21.31;52.16
65396;HTU21D;52004;45.136;39.010;2022-09-03T03:52:09;21.36;52.16
65396;HTU21D;52004;45.136;39.010;2022-09-03T03:54:35;21.40;52.14
65396;HTU21D;52004;45.136;39.010;2022-09-03T03:57:01;21.47;52.12
65396;HTU21D;52004;45.136;39.010;2022-09-03T03:59:27;21.52;52.10
65396;HTU21D;52004;45.136;39.010;2022-09-03T04:01:53;21.59;52.07
65396;HTU21D;52004;45.136;39.010;2022-09-03T04:04:20;21.63;52.07
65396;HTU21D;52004;45.136;39.010;2022-09-03T04:06:45;21.68;52.07
65396;HTU21D;52004;45.136;39.010;2022-09-03T04:09:11;21.73;52.03
65396;HTU21D;52004;45.136;39.010;2022-09-03T04:11:37;21.79;52.02
65396;HTU21D;52004;45.136;39.010;2022-09-03T04:14:03;21.88;52.01
65396;HTU21D;52004;45.136;39.010;2022-09-03T04:16:29;21.92;51.98
65396;HTU21D;52004;45.136;39.010;2022-09-03T04:18:57;21.96;52.00
65396;HTU21D;52004;45.136;39.010;2022-09-03T04:21:24;22.04;52.00
65396;HTU21D;52004;45.136;39.010;2022-09-03T04:23:51;22.09;51.97
65396;HTU21D;52004;45.136;39.010;2022-09-03T04:26:21;22.16;51.97
65396;HTU21D;52004;45.136;39.010;2022-09-03T04:28:47;22.22;51.97
65396;HTU21D;52004;45.136;39.010;2022-09-03T04:31:14;22.31;51.92
65396;HTU21D;52004;45.136;39.010;2022-09-03T04:33:41;22.37;51.90
65396;HTU21D;52004;45.136;39.010;2022-09-03T04:36:13;22.46;51.88
65396;HTU21D;52004;45.136;39.010;2022-09-03T04:38:41;22.54;51.82
65396;HTU21D;52004;45.136;39.010;2022-09-03T04:41:09;22.61;51.82
65396;HTU21D;52004;45.136;39.010;2022-09-03T04:43:35;22.68;51.77
65396;HTU21D;52004;45.136;39.010;2022-09-03T04:46:02;0.00;51.71
65396;HTU21D;52004;45.136;39.010;2022-09-03T04:48:29;22.80;51.72
65396;HTU21D;52004;45.136;39.010;2022-09-03T04:51:00;22.87;51.70
65396;HTU21D;52004;45.136;39.010;2022-09-03T04:53:31;22.92;51.66
65396;HTU21D;52004;45.136;39.010;2022-09-03T04:55:57;22.97;51.62
65396;HTU21D;52004;45.136;39.010;2022-09-03T04:58:23;0.00;51.62
65396;HTU21D;52004;45.136;39.010;2022-09-03T05:00:48;23.11;51.59
65396;HTU21D;52004;45.136;39.010;2022-09-03T05:03:14;23.16;51.56
65396;HTU21D;52004;45.136;39.010;2022-09-03T05:05:40;23.23;51.51
65396;HTU21D;52004;45.136;39.010;2022-09-03T05:08:32;0.00;51.49
65396;HTU21D;52004;45.136;39.010;2022-09-03T05:11:04;23.38;51.43
65396;HTU21D;52004;45.136;39.010;2022-09-03T05:13:31;23.43;51.42
65396;HTU21D;52004;45.136;39.010;2022-09-03T05:15:59;23.50;51.40
65396;HTU21D;52004;45.136;39.010;2022-09-03T05:18:25;23.57;51.40
65396;HTU21D;52004;45.136;39.010;2022-09-03T05:21:00;23.65;51.32
65396;HTU21D;52004;45.136;39.010;2022-09-03T05:23:27;23.71;51.31
65396;HTU21D;52004;45.136;39.010;2022-09-03T05:25:54;23.81;51.30
65396;HTU21D;52004;45.136;39.010;2022-09-03T05:28:21;23.89;51.29
65396;HTU21D;52004;45.136;39.010;2022-09-03T05:30:56;23.99;51.27
65396;HTU21D;52004;45.136;39.010;2022-09-03T05:33:22;24.06;51.18
65396;HTU21D;52004;45.136;39.010;2022-09-03T05:35:49;24.13;51.15
65396;HTU21D;52004;45.136;39.010;2022-09-03T05:38:15;24.18;51.16
65396;HTU21D;52004;45.136;39.010;2022-09-03T05:40:42;24.28;51.16
65396;HTU21D;52004;45.136;39.010;2022-09-03T05:43:08;24.36;51.08
65396;HTU21D;52004;45.136;39.010;2022-09-03T05:45:34;0.00;51.06
65396;HTU21D;52004;45.136;39.010;2022-09-03T05:48:01;24.50;51.00
65396;HTU21D;52004;45.136;39.010;2022-09-03T05:50:27;24.58;51.00
65396;HTU21D;52004;45.136;39.010;2022-09-03T05:52:53;24.65;51.04
65396;HTU21D;52004;45.136;39.010;2022-09-03T05:55:19;24.78;51.00
65396;HTU21D;52004;45.136;39.010;2022-09-03T05:57:50;24.87;50.94
65396;HTU21D;52004;45.136;39.010;2022-09-03T06:00:16;24.94;50.82
65396;HTU21D;52004;45.136;39.010;2022-09-03T06:02:48;25.01;50.82
65396;HTU21D;52004;45.136;39.010;2022-09-03T06:05:14;25.08;50.79
65396;HTU21D;52004;45.136;39.010;2022-09-03T06:07:41;0.00;50.78
65396;HTU21D;52004;45.136;39.010;2022-09-03T06:10:07;25.25;50.74
65396;HTU21D;52004;45.136;39.010;2022-09-03T06:12:33;25.33;50.78
65396;HTU21D;52004;45.136;39.010;2022-09-03T06:15:00;25.45;50.71
65396;HTU21D;52004;45.136;39.010;2022-09-03T06:17:26;25.56;50.69
65396;HTU21D;52004;45.136;39.010;2022-09-03T06:19:52;25.65;50.63
65396;HTU21D;52004;45.136;39.010;2022-09-03T06:22:18;25.73;50.56
65396;HTU21D;52004;45.136;39.010;2022-09-03T06:24:43;0.00;50.50
65396;HTU21D;52004;45.136;39.010;2022-09-03T06:27:09;25.88;50.48
65396;HTU21D;52004;45.136;39.010;2022-09-03T06:29:35;25.96;50.46
65396;HTU21D;52004;45.136;39.010;2022-09-03T06:32:04;26.05;50.42
65396;HTU21D;52004;45.136;39.010;2022-09-03T06:34:30;26.12;50.33
65396;HTU21D;52004;45.136;39.010;2022-09-03T06:36:56;26.18;50.34
65396;HTU21D;52004;45.136;39.010;2022-09-03T06:39:22;26.21;50.21
65396;HTU21D;52004;45.136;39.010;2022-09-03T06:41:50;26.26;50.27
65396;HTU21D;52004;45.136;39.010;2022-09-03T06:44:24;26.36;50.19
65396;HTU21D;52004;45.136;39.010;2022-09-03T06:46:50;26.40;50.05
65396;HTU21D;52004;45.136;39.010;2022-09-03T06:49:18;26.47;50.18
65396;HTU21D;52004;45.136;39.010;2022-09-03T06:51:44;26.52;50.10
65396;HTU21D;52004;45.136;39.010;2022-09-03T06:54:10;26.65;50.18
65396;HTU21D;52004;45.136;39.010;2022-09-03T06:56:37;26.78;50.19
65396;HTU21D;52004;45.136;39.010;2022-09-03T06:59:05;26.87;49.97
65396;HTU21D;52004;45.136;39.010;2022-09-03T07:01:31;26.97;50.00
65396;HTU21D;52004;45.136;39.010;2022-09-03T07:03:58;27.09;50.04
65396;HTU21D;52004;45.136;39.010;2022-09-03T07:06:26;27.23;50.00
65396;HTU21D;52004;45.136;39.010;2022-09-03T07:08:52;27.30;49.81
65396;HTU21D;52004;45.136;39.010;2022-09-03T07:11:20;27.38;49.81
65396;HTU21D;52004;45.136;39.010;2022-09-03T07:13:48;27.43;49.73
65396;HTU21D;52004;45.136;39.010;2022-09-03T07:16:15;27.47;49.67
65396;HTU21D;52004;45.136;39.010;2022-09-03T07:18:41;27.51;49.60
65396;HTU21D;52004;45.136;39.010;2022-09-03T07:21:12;27.55;49.71
65396;HTU21D;52004;45.136;39.010;2022-09-03T07:23:38;27.61;49.71
65396;HTU21D;52004;45.136;39.010;2022-09-03T07:26:08;27.73;49.69
65396;HTU21D;52004;45.136;39.010;2022-09-03T07:28:35;27.82;49.66
65396;HTU21D;52004;45.136;39.010;2022-09-03T07:31:03;27.94;49.63
65396;HTU21D;52004;45.136;39.010;2022-09-03T07:33:29;28.09;49.69
65396;HTU21D;52004;45.136;39.010;2022-09-03T07:36:01;28.23;49.57
65396;HTU21D;52004;45.136;39.010;2022-09-03T07:38:27;28.32;49.44
65396;HTU21D;52004;45.136;39.010;2022-09-03T07:40:56;28.41;49.44
65396;HTU21D;52004;45.136;39.010;2022-09-03T07:43:23;28.48;49.32
65396;HTU21D;52004;45.136;39.010;2022-09-03T07:45:49;28.55;49.20
65396;HTU21D;52004;45.136;39.010;2022-09-03T07:48:16;28.57;49.18
65396;HTU21D;52004;45.136;39.010;2022-09-03T07:50:42;28.60;49.32
65396;HTU21D;52004;45.136;39.010;2022-09-03T07:53:09;28.69;49.14
65396;HTU21D;52004;45.136;39.010;2022-09-03T07:55:35;28.71;48.96
65396;HTU21D;52004;45.136;39.010;2022-09-03T07:58:01;28.72;48.95
65396;HTU21D;52004;45.136;39.010;2022-09-03T08:00:27;28.76;49.05
65396;HTU21D;52004;45.136;39.010;2022-09-03T08:02:53;28.86;49.10
65396;HTU21D;52004;45.136;39.010;2022-09-03T08:05:19;28.97;48.94
65396;HTU21D;52004;45.136;39.010;2022-09-03T08:07:45;29.02;48.89
65396;HTU21D;52004;45.136;39.010;2022-09-03T08:10:11;29.12;48.90
65396;HTU21D;52004;45.136;39.010;2022-09-03T08:12:37;29.19;48.81
65396;HTU21D;52004;45.136;39.010;2022-09-03T08:15:03;29.24;48.81
65396;HTU21D;52004;45.136;39.010;2022-09-03T08:17:29;29.29;48.61
65396;HTU21D;52004;45.136;39.010;2022-09-03T08:19:55;29.33;48.65
65396;HTU21D;52004;45.136;39.010;2022-09-03T08:22:23;29.37;48.58
65396;HTU21D;52004;45.136;39.010;2022-09-03T08:24:50;29.42;48.63
65396;HTU21D;52004;45.136;39.010;2022-09-03T08:27:20;29.50;48.52
65396;HTU21D;52004;45.136;39.010;2022-09-03T08:29:50;29.54;48.42
65396;HTU21D;52004;45.136;39.010;2022-09-03T08:32:16;29.58;48.52
65396;HTU21D;52004;45.136;39.010;2022-09-03T08:34:42;29.64;48.28
65396;HTU21D;52004;45.136;39.010;2022-09-03T08:37:08;29.71;48.44
65396;HTU21D;52004;45.136;39.010;2022-09-03T08:39:35;29.79;48.44
65396;HTU21D;52004;45.136;39.010;2022-09-03T08:42:17;29.90;48.38
65396;HTU21D;52004;45.136;39.010;2022-09-03T08:44:50;30.03;48.37
65396;HTU21D;52004;45.136;39.010;2022-09-03T08:52:37;30.39;48.05
65396;HTU21D;52004;45.136;39.010;2022-09-03T08:55:08;30.44;47.87
65396;HTU21D;52004;45.136;39.010;2022-09-03T09:00:23;30.61;47.95
65396;HTU21D;52004;45.136;39.010;2022-09-03T09:11:20;30.95;47.77
65396;HTU21D;52004;45.136;39.010;2022-09-03T09:19:27;31.24;47.73
65396;HTU21D;52004;45.136;39.010;2022-09-03T09:21:58;31.36;47.64
65396;HTU21D;52004;45.136;39.010;2022-09-03T09:24:27;31.44;47.61
65396;HTU21D;52004;45.136;39.010;2022-09-03T09:26:59;31.54;47.60
65396;HTU21D;52004;45.136;39.010;2022-09-03T09:29:35;31.63;47.54
65396;HTU21D;52004;45.136;39.010;2022-09-03T09:32:02;31.72;47.47
65396;HTU21D;52004;45.136;39.010;2022-09-03T09:34:35;31.78;47.43
65396;HTU21D;52004;45.136;39.010;2022-09-03T09:37:02;31.84;47.35
65396;HTU21D;52004;45.136;39.010;2022-09-03T09:39:29;31.89;47.31
65396;HTU21D;52004;45.136;39.010;2022-09-03T09:41:59;31.96;47.21
65396;HTU21D;52004;45.136;39.010;2022-09-03T09:44:26;31.99;47.18
65396;HTU21D;52004;45.136;39.010;2022-09-03T09:47:00;32.07;47.15
65396;HTU21D;52004;45.136;39.010;2022-09-03T09:51:59;32.13;46.96
65396;HTU21D;52004;45.136;39.010;2022-09-03T09:54:25;32.17;47.04
65396;HTU21D;52004;45.136;39.010;2022-09-03T09:56:59;32.26;47.06
65396;HTU21D;52004;45.136;39.010;2022-09-03T09:59:25;32.37;47.00
65396;HTU21D;52004;45.136;39.010;2022-09-03T10:02:01;32.44;46.88
65396;HTU21D;52004;45.136;39.010;2022-09-03T10:04:30;32.48;46.85
65396;HTU21D;52004;45.136;39.010;2022-09-03T10:06:59;32.56;46.87
65396;HTU21D;52004;45.136;39.010;2022-09-03T10:09:28;32.64;46.81
65396;HTU21D;52004;45.136;39.010;2022-09-03T10:14:28;32.84;46.83
65396;HTU21D;52004;45.136;39.010;2022-09-03T10:17:02;0.00;46.73
65396;HTU21D;52004;45.136;39.010;2022-09-03T10:19:39;33.02;46.65
65396;HTU21D;52004;45.136;39.010;2022-09-03T10:22:07;0.00;46.41
65396;HTU21D;52004;45.136;39.010;2022-09-03T10:24:40;33.04;46.31
65396;HTU21D;52004;45.136;39.010;2022-09-03T10:27:11;33.02;46.44
65396;HTU21D;52004;45.136;39.010;2022-09-03T10:29:39;33.05;46.47
65396;HTU21D;52004;45.136;39.010;2022-09-03T10:37:22;33.32;46.39
65396;HTU21D;52004;45.136;39.010;2022-09-03T10:42:34;33.42;46.12
65396;HTU21D;52004;45.136;39.010;2022-09-03T10:55:02;33.60;45.99
65396;HTU21D;52004;45.136;39.010;2022-09-03T11:00:15;33.65;45.99
65396;HTU21D;52004;45.136;39.010;2022-09-03T11:05:17;33.80;45.91
65396;HTU21D;52004;45.136;39.010;2022-09-03T11:07:56;33.83;45.89
65396;HTU21D;52004;45.136;39.010;2022-09-03T11:10:28;33.88;45.79
65396;HTU21D;52004;45.136;39.010;2022-09-03T11:15:25;33.97;45.85
65396;HTU21D;52004;45.136;39.010;2022-09-03T11:17:53;34.05;45.87
65396;HTU21D;52004;45.136;39.010;2022-09-03T11:20:22;34.12;45.74
65396;HTU21D;52004;45.136;39.010;2022-09-03T11:22:49;34.16;45.64
65396;HTU21D;52004;45.136;39.010;2022-09-03T11:25:17;34.18;45.59
65396;HTU21D;52004;45.136;39.010;2022-09-03T11:27:51;34.19;45.59
65396;HTU21D;52004;45.136;39.010;2022-09-03T11:30:28;34.23;45.57
65396;HTU21D;52004;45.136;39.010;2022-09-03T11:32:58;34.26;45.53
65396;HTU21D;52004;45.136;39.010;2022-09-03T11:38:01;34.34;45.48
65396;HTU21D;52004;45.136;39.010;2022-09-03T11:40:32;34.39;45.43
65396;HTU21D;52004;45.136;39.010;2022-09-03T11:45:37;34.42;45.33
65396;HTU21D;52004;45.136;39.010;2022-09-03T11:48:29;34.46;45.37
65396;HTU21D;52004;45.136;39.010;2022-09-03T11:50:58;34.46;45.20
65396;HTU21D;52004;45.136;39.010;2022-09-03T11:53:25;34.41;45.16
65396;HTU21D;52004;45.136;39.010;2022-09-03T11:58:36;34.36;45.28
65396;HTU21D;52004;45.136;39.010;2022-09-03T12:01:11;34.37;45.24
65396;HTU21D;52004;45.136;39.010;2022-09-03T12:03:44;34.39;45.31
65396;HTU21D;52004;45.136;39.010;2022-09-03T12:11:34;34.62;45.15
65396;HTU21D;52004;45.136;39.010;2022-09-03T12:16:41;34.53;45.16
65396;HTU21D;52004;45.136;39.010;2022-09-03T12:21:54;34.55;45.16
65396;HTU21D;52004;45.136;39.010;2022-09-03T12:24:21;34.56;45.16
65396;HTU21D;52004;45.136;39.010;2022-09-03T12:26:47;34.56;45.10
65396;HTU21D;52004;45.136;39.010;2022-09-03T12:29:21;34.54;45.09
65396;HTU21D;52004;45.136;39.010;2022-09-03T12:31:48;34.56;45.10
65396;HTU21D;52004;45.136;39.010;2022-09-03T12:34:16;34.57;45.06
65396;HTU21D;52004;45.136;39.010;2022-09-03T12:36:43;34.52;45.09
65396;HTU21D;52004;45.136;39.010;2022-09-03T12:39:10;34.50;45.14
65396;HTU21D;52004;45.136;39.010;2022-09-03T12:41:37;34.44;45.14
65396;HTU21D;52004;45.136;39.010;2022-09-03T12:44:03;34.42;45.14
65396;HTU21D;52004;45.136;39.010;2022-09-03T12:49:39;34.41;45.22
65396;HTU21D;52004;45.136;39.010;2022-09-03T12:52:28;34.45;45.22
65396;HTU21D;52004;45.136;39.010;2022-09-03T12:57:19;34.48;45.16
65396;HTU21D;52004;45.136;39.010;2022-09-03T12:59:46;34.49;45.15
65396;HTU21D;52004;45.136;39.010;2022-09-03T13:02:19;34.47;45.09
65396;HTU21D;52004;45.136;39.010;2022-09-03T13:04:47;34.44;45.06
65396;HTU21D;52004;45.136;39.010;2022-09-03T13:07:19;34.36;45.03
65396;HTU21D;52004;45.136;39.010;2022-09-03T13:09:45;34.32;45.11
65396;HTU21D;52004;45.136;39.010;2022-09-03T13:12:22;34.30;45.09
65396;HTU21D;52004;45.136;39.010;2022-09-03T13:14:53;34.30;45.09
65396;HTU21D;52004;45.136;39.010;2022-09-03T13:30:20;34.33;45.03
65396;HTU21D;52004;45.136;39.010;2022-09-03T13:38:02;34.23;44.96
65396;HTU21D;52004;45.136;39.010;2022-09-03T13:43:04;34.10;44.99
65396;HTU21D;52004;45.136;39.010;2022-09-03T13:45:38;34.03;45.03
65396;HTU21D;52004;45.136;39.010;2022-09-03T13:48:11;33.99;45.03
65396;HTU21D;52004;45.136;39.010;2022-09-03T13:53:39;33.86;45.02
65396;HTU21D;52004;45.136;39.010;2022-09-03T13:56:14;33.79;45.02
65396;HTU21D;52004;45.136;39.010;2022-09-03T13:59:00;33.73;45.02
65396;HTU21D;52004;45.136;39.010;2022-09-03T14:04:20;33.65;45.04
65396;HTU21D;52004;45.136;39.010;2022-09-03T14:06:55;33.61;45.05
65396;HTU21D;52004;45.136;39.010;2022-09-03T14:19:41;33.44;45.17
65396;HTU21D;52004;45.136;39.010;2022-09-03T14:22:12;33.42;45.19
65396;HTU21D;52004;45.136;39.010;2022-09-03T14:24:56;33.37;45.22
65396;HTU21D;52004;45.136;39.010;2022-09-03T14:27:30;33.32;45.30
65396;HTU21D;52004;45.136;39.010;2022-09-03T14:33:13;33.16;45.45
65396;HTU21D;52004;45.136;39.010;2022-09-03T14:43:26;32.88;45.83
65396;HTU21D;52004;45.136;39.010;2022-09-03T14:48:34;32.76;45.99
65396;HTU21D;52004;45.136;39.010;2022-09-03T14:56:16;32.59;46.13
65396;HTU21D;52004;45.136;39.010;2022-09-03T14:58:52;32.52;46.18
65396;HTU21D;52004;45.136;39.010;2022-09-03T15:01:32;32.45;46.16
65396;HTU21D;52004;45.136;39.010;2022-09-03T15:09:31;32.22;46.23
65396;HTU21D;52004;45.136;39.010;2022-09-03T15:11:59;32.15;46.21
65396;HTU21D;52004;45.136;39.010;2022-09-03T15:17:19;32.01;46.12
65396;HTU21D;52004;45.136;39.010;2022-09-03T15:20:29;31.95;46.07
65396;HTU21D;52004;45.136;39.010;2022-09-03T15:22:50;31.84;46.06
65396;HTU21D;52004;45.136;39.010;2022-09-03T15:25:31;31.76;46.03
65396;HTU21D;52004;45.136;39.010;2022-09-03T15:28:11;31.67;46.03
65396;HTU21D;52004;45.136;39.010;2022-09-03T15:33:36;31.46;45.99
65396;HTU21D;52004;45.136;39.010;2022-09-03T15:38:36;31.29;46.01
65396;HTU21D;52004;45.136;39.010;2022-09-03T15:41:06;31.20;46.02
65396;HTU21D;52004;45.136;39.010;2022-09-03T15:43:34;31.13;46.03
65396;HTU21D;52004;45.136;39.010;2022-09-03T15:46:04;31.05;46.02
65396;HTU21D;52004;45.136;39.010;2022-09-03T15:48:49;30.96;46.03
65396;HTU21D;52004;45.136;39.010;2022-09-03T15:51:27;30.87;46.03
65396;HTU21D;52004;45.136;39.010;2022-09-03T15:53:59;30.77;46.07
65396;HTU21D;52004;45.136;39.010;2022-09-03T16:12:07;30.16;46.37
65396;HTU21D;52004;45.136;39.010;2022-09-03T16:22:25;29.90;46.48
65396;HTU21D;52004;45.136;39.010;2022-09-03T16:25:02;29.83;46.52
65396;HTU21D;52004;45.136;39.010;2022-09-03T16:30:11;29.70;46.61
65396;HTU21D;52004;45.136;39.010;2022-09-03T16:46:39;29.19;46.99
65396;HTU21D;52004;45.136;39.010;2022-09-03T17:05:19;28.71;47.41
65396;HTU21D;52004;45.136;39.010;2022-09-03T17:13:22;28.53;47.60
65396;HTU21D;52004;45.136;39.010;2022-09-03T17:16:00;28.46;47.67
65396;HTU21D;52004;45.136;39.010;2022-09-03T17:23:39;0.00;47.82
65396;HTU21D;52004;45.136;39.010;2022-09-03T17:31:30;28.04;48.05
65396;HTU21D;52004;45.136;39.010;2022-09-03T17:34:24;28.00;48.11
65396;HTU21D;52004;45.136;39.010;2022-09-03T17:36:55;27.94;48.18
65396;HTU21D;52004;45.136;39.010;2022-09-03T17:39:48;0.00;48.22
65396;HTU21D;52004;45.136;39.010;2022-09-03T17:42:13;27.82;48.28
65396;HTU21D;52004;45.136;39.010;2022-09-03T17:50:19;27.70;48.43
65396;HTU21D;52004;45.136;39.010;2022-09-03T17:52:49;27.63;48.47
65396;HTU21D;52004;45.136;39.010;2022-09-03T17:55:31;27.58;48.53
65396;HTU21D;52004;45.136;39.010;2022-09-03T17:58:00;27.54;48.60
65396;HTU21D;52004;45.136;39.010;2022-09-03T18:00:31;27.50;48.66
65396;HTU21D;52004;45.136;39.010;2022-09-03T18:03:12;27.46;48.70
65396;HTU21D;52004;45.136;39.010;2022-09-03T18:13:53;27.34;48.82
65396;HTU21D;52004;45.136;39.010;2022-09-03T18:16:27;27.31;48.87
65396;HTU21D;52004;45.136;39.010;2022-09-03T18:18:57;27.29;48.92
65396;HTU21D;52004;45.136;39.010;2022-09-03T18:21:24;27.28;48.92
65396;HTU21D;52004;45.136;39.010;2022-09-03T18:24:27;27.24;48.95
65396;HTU21D;52004;45.136;39.010;2022-09-03T18:30:05;27.17;48.98
65396;HTU21D;52004;45.136;39.010;2022-09-03T18:32:49;27.10;49.04
65396;HTU21D;52004;45.136;39.010;2022-09-03T18:35:34;27.04;49.11
65396;HTU21D;52004;45.136;39.010;2022-09-03T18:38:29;27.01;49.14
65396;HTU21D;52004;45.136;39.010;2022-09-03T18:44:24;26.94;49.20
65396;HTU21D;52004;45.136;39.010;2022-09-03T18:53:27;26.77;49.33
65396;HTU21D;52004;45.136;39.010;2022-09-03T18:56:35;26.69;49.37
65396;HTU21D;52004;45.136;39.010;2022-09-03T18:59:31;26.65;49.44
65396;HTU21D;52004;45.136;39.010;2022-09-03T19:02:26;26.60;49.50
65396;HTU21D;52004;45.136;39.010;2022-09-03T19:05:16;0.00;49.50
65396;HTU21D;52004;45.136;39.010;2022-09-03T19:14:10;26.50;49.54
65396;HTU21D;52004;45.136;39.010;2022-09-03T19:22:34;0.00;49.56
65396;HTU21D;52004;45.136;39.010;2022-09-03T19:25:19;26.35;49.60
65396;HTU21D;52004;45.136;39.010;2022-09-03T19:28:14;26.32;49.61
65396;HTU21D;52004;45.136;39.010;2022-09-03T19:36:40;26.20;49.66
65396;HTU21D;52004;45.136;39.010;2022-09-03T19:39:50;26.18;49.64
65396;HTU21D;52004;45.136;39.010;2022-09-03T19:48:35;26.08;49.60
65396;HTU21D;52004;45.136;39.010;2022-09-03T19:51:31;26.05;49.60
65396;HTU21D;52004;45.136;39.010;2022-09-03T19:54:19;25.99;49.60
65396;HTU21D;52004;45.136;39.010;2022-09-03T19:57:06;0.00;49.62
65396;HTU21D;52004;45.136;39.010;2022-09-03T19:59:50;25.95;49.62
65396;HTU21D;52004;45.136;39.010;2022-09-03T20:02:39;25.95;49.60
65396;HTU21D;52004;45.136;39.010;2022-09-03T20:05:24;25.92;49.58
65396;HTU21D;52004;45.136;39.010;2022-09-03T20:08:09;25.91;49.56
65396;HTU21D;52004;45.136;39.010;2022-09-03T20:10:56;25.87;49.55
65396;HTU21D;52004;45.136;39.010;2022-09-03T20:13:23;25.82;49.53
65396;HTU21D;52004;45.136;39.010;2022-09-03T20:16:11;25.76;49.56
65396;HTU21D;52004;45.136;39.010;2022-09-03T20:26:15;25.49;49.82
65396;HTU21D;52004;45.136;39.010;2022-09-03T20:52:20;24.91;50.31
65396;HTU21D;52004;45.136;39.010;2022-09-03T21:02:22;24.74;50.50
65396;HTU21D;52004;45.136;39.010;2022-09-03T21:04:57;24.69;50.53
65396;HTU21D;52004;45.136;39.010;2022-09-03T21:14:47;24.50;50.71
65396;HTU21D;52004;45.136;39.010;2022-09-03T21:20:02;24.42;50.86
65396;HTU21D;52004;45.136;39.010;2022-09-03T21:25:30;24.32;50.99
65396;HTU21D;52004;45.136;39.010;2022-09-03T21:28:02;24.29;51.04
65396;HTU21D;52004;45.136;39.010;2022-09-03T21:30:30;24.26;51.11
65396;HTU21D;52004;45.136;39.010;2022-09-03T21:33:03;24.21;51.14
65396;HTU21D;52004;45.136;39.010;2022-09-03T21:35:41;24.19;51.17
65396;HTU21D;52004;45.136;39.010;2022-09-03T21:38:13;24.15;51.19
65396;HTU21D;52004;45.136;39.010;2022-09-03T21:40:46;24.10;51.24